| time (UTC) | temp F | wind direction | speed knots | gust knots | rain 1hr in | rain 24hr in | rain mn in | humidity % | barometer mb |
| 20260504223310 | 77 | 331 | 2.6 | 3.5 | 0.00 | 0.02 | 0.02 | 83 | 1014.9 |
| 20260504222807 | 77 | 326 | 1.7 | 1.7 | 0.00 | 0.02 | 0.02 | 81 | 1015.0 |
| 20260504222305 | 77 | 326 | 1.7 | 1.7 | 0.00 | 0.02 | 0.02 | 81 | 1015.1 |
| 20260504221801 | 78 | 351 | 0.0 | 1.7 | 0.00 | 0.02 | 0.02 | 83 | 1015.0 |
| 20260504221258 | 80 | 90 | 1.7 | 2.6 | 0.00 | 0.02 | 0.02 | 82 | 1014.9 |
| 20260504220755 | 80 | 90 | 1.7 | 2.6 | 0.00 | 0.02 | 0.02 | 82 | 1014.9 |
| 20260504220252 | 80 | 172 | 1.7 | 4.3 | 0.00 | 0.02 | 0.02 | 82 | 1014.7 |
| 20260504215749 | 80 | 144 | 3.5 | 4.3 | 0.00 | 0.02 | 0.02 | 82 | 1014.9 |
| 20260504215245 | 80 | 190 | 2.6 | 4.3 | 0.02 | 0.02 | 0.02 | 82 | 1014.7 |
| 20260504214741 | 81 | 175 | 4.3 | 6.1 | 0.00 | 0.01 | 0.01 | 80 | 1014.7 |
| 20260504214238 | 82 | 216 | 1.7 | 7.8 | 0.00 | 0.01 | 0.01 | 76 | 1014.4 |
| 20260504213735 | 82 | 192 | 2.6 | 5.2 | 0.00 | 0.01 | 0.01 | 77 | 1014.7 |
| 20260504213231 | 82 | 176 | 3.5 | 5.2 | 0.00 | 0.01 | 0.01 | 77 | 1014.7 |
| 20260504212728 | 82 | 186 | 1.7 | 6.1 | 0.00 | 0.01 | 0.01 | 77 | 1014.7 |
| 20260504212225 | 82 | 213 | 1.7 | 7.0 | 0.00 | 0.01 | 0.01 | 75 | 1014.3 |
| 20260504211723 | 82 | 133 | 4.3 | 5.2 | 0.00 | 0.01 | 0.01 | 75 | 1014.5 |
| 20260504211218 | 82 | 149 | 6.1 | 7.8 | 0.00 | 0.01 | 0.01 | 76 | 1014.4 |
| 20260504210716 | 82 | 186 | 3.5 | 6.1 | 0.00 | 0.01 | 0.01 | 75 | 1014.5 |
| 20260504210213 | 82 | 169 | 2.6 | 7.0 | 0.00 | 0.01 | 0.01 | 75 | 1014.5 |
| 20260504205710 | 82 | 173 | 7.8 | 7.8 | 0.00 | 0.01 | 0.01 | 76 | 1014.2 |
| 20260504205207 | 82 | 193 | 3.5 | 7.0 | 0.00 | 0.01 | 0.01 | 77 | 1014.5 |
| 20260504204706 | 82 | 165 | 1.7 | 5.2 | 0.00 | 0.01 | 0.01 | 78 | 1014.6 |
| 20260504204204 | 82 | 205 | 2.6 | 7.0 | 0.00 | 0.01 | 0.01 | 78 | 1014.7 |
| 20260504203702 | 82 | 143 | 3.5 | 6.1 | 0.00 | 0.01 | 0.01 | 77 | 1014.4 |
| 20260504203200 | 82 | 162 | 2.6 | 2.6 | 0.00 | 0.01 | 0.01 | 78 | 1014.7 |
| 20260504202700 | 82 | 176 | 1.7 | 5.2 | 0.00 | 0.01 | 0.01 | 80 | 1014.8 |
| 20260504202157 | 82 | 189 | 1.7 | 3.5 | 0.00 | 0.01 | 0.01 | 80 | 1014.6 |
| 20260504201654 | 82 | 154 | 1.7 | 5.2 | 0.00 | 0.01 | 0.01 | 80 | 1015.0 |
| 20260504201152 | 81 | 191 | 0.9 | 3.5 | 0.00 | 0.01 | 0.01 | 79 | 1015.0 |
| 20260504200649 | 81 | 186 | 0.9 | 3.5 | 0.00 | 0.01 | 0.01 | 81 | 1015.2 |
| 20260504200145 | 81 | 186 | 0.9 | 3.5 | 0.02 | 0.01 | 0.01 | 81 | 1015.2 |
| 20260504195641 | 82 | 144 | 0.9 | 0.9 | 0.07 | 0.01 | 0.01 | 81 | 1015.1 |
| 20260504195137 | 82 | 135 | 0.9 | 1.7 | 0.05 | 0.01 | 0.01 | 79 | 1015.3 |
| 20260504194634 | 83 | 135 | 3.5 | 5.2 | 0.00 | 0.00 | 0.00 | 74 | 1015.1 |
| 20260504194130 | 84 | 114 | 0.9 | 6.1 | 0.00 | 0.00 | 0.00 | 70 | 1015.2 |
| 20260504193627 | 84 | 118 | 3.5 | 5.2 | 0.00 | 0.00 | 0.00 | 70 | 1015.3 |
| 20260504193125 | 84 | 172 | 2.6 | 6.1 | 0.00 | 0.00 | 0.00 | 70 | 1015.3 |
| 20260504192623 | 84 | 159 | 3.5 | 6.1 | 0.00 | 0.00 | 0.00 | 73 | 1015.5 |
| 20260504192121 | 84 | 153 | 5.2 | 5.2 | 0.00 | 0.00 | 0.00 | 70 | 1015.4 |
| 20260504191619 | 85 | 104 | 1.7 | 6.1 | 0.00 | 0.00 | 0.00 | 69 | 1015.5 |
| 20260504191115 | 85 | 177 | 2.6 | 5.2 | 0.00 | 0.00 | 0.00 | 69 | 1015.5 |
| 20260504190611 | 85 | 177 | 3.5 | 5.2 | 0.00 | 0.00 | 0.00 | 67 | 1015.5 |
| 20260504190108 | 85 | 181 | 3.5 | 6.1 | 0.00 | 0.00 | 0.00 | 65 | 1015.5 |
| 20260504185604 | 85 | 163 | 2.6 | 6.1 | 0.00 | 0.00 | 0.00 | 67 | 1015.6 |
| 20260504185101 | 85 | 144 | 3.5 | 6.1 | 0.00 | 0.00 | 0.00 | 66 | 1015.6 |
| 20260504184556 | 86 | 155 | 5.2 | 7.8 | 0.00 | 0.00 | 0.00 | 64 | 1015.5 |
| 20260504184052 | 86 | 124 | 1.7 | 5.2 | 0.00 | 0.00 | 0.00 | 63 | 1015.5 |
| 20260504183549 | 86 | 219 | 1.7 | 5.2 | 0.00 | 0.00 | 0.00 | 66 | 1015.8 |
| 20260504183047 | 86 | 165 | 5.2 | 7.0 | 0.00 | 0.00 | 0.00 | 65 | 1015.7 |
| 20260504182544 | 86 | 173 | 4.3 | 5.2 | 0.00 | 0.00 | 0.00 | 65 | 1015.8 |
| 20260504182041 | 88 | 155 | 4.3 | 7.0 | 0.00 | 0.00 | 0.00 | 61 | 1015.7 |
| 20260504181538 | 88 | 162 | 3.5 | 7.0 | 0.00 | 0.00 | 0.00 | 64 | 1015.9 |
| 20260504181037 | 87 | 171 | 2.6 | 7.8 | 0.00 | 0.00 | 0.00 | 61 | 1015.9 |
| 20260504180535 | 88 | 142 | 1.7 | 7.0 | 0.00 | 0.00 | 0.00 | 61 | 1015.9 |
| 20260504180034 | 89 | 179 | 2.6 | 4.3 | 0.00 | 0.00 | 0.00 | 60 | 1016.1 |
| 20260504175531 | 90 | 184 | 1.7 | 7.0 | 0.00 | 0.00 | 0.00 | 57 | 1016.1 |
| 20260504175028 | 88 | 197 | 2.6 | 5.2 | 0.00 | 0.00 | 0.00 | 60 | 1016.3 |
| 20260504174525 | 89 | 147 | 2.6 | 6.1 | 0.00 | 0.00 | 0.00 | 60 | 1016.5 |
| 20260504174022 | 91 | 145 | 4.3 | 7.0 | 0.00 | 0.00 | 0.00 | 56 | 1016.4 |
| 20260504173519 | 89 | 160 | 2.6 | 6.1 | 0.00 | 0.00 | 0.00 | 58 | 1016.6 |
| 20260504173016 | 89 | 174 | 1.7 | 7.8 | 0.00 | 0.00 | 0.00 | 60 | 1016.6 |
| 20260504172512 | 90 | 176 | 2.6 | 7.0 | 0.00 | 0.00 | 0.00 | 58 | 1016.5 |
| 20260504172008 | 89 | 177 | 5.2 | 6.1 | 0.00 | 0.00 | 0.00 | 59 | 1016.7 |
| 20260504171506 | 91 | 167 | 2.6 | 6.1 | 0.00 | 0.00 | 0.00 | 58 | 1016.7 |
| 20260504171002 | 90 | 193 | 3.5 | 5.2 | 0.00 | 0.00 | 0.00 | 59 | 1016.8 |
| 20260504170458 | 90 | 160 | 3.5 | 6.1 | 0.00 | 0.00 | 0.00 | 58 | 1016.8 |
| 20260504160419 | 88 | 212 | 0.9 | 5.2 | 0.00 | 0.00 | 0.00 | 62 | 1016.9 |
| 20260504150842 | 87 | 165 | 1.7 | 4.3 | 0.00 | 0.00 | 0.00 | 63 | 1016.9 |
| 20260504150339 | 86 | 221 | 1.7 | 2.6 | 0.00 | 0.00 | 0.00 | 66 | 1017.0 |
| 20260504141309 | 87 | 90 | 2.6 | 3.5 | 0.00 | 0.00 | 0.00 | 60 | 1016.8 |
| 20260504140806 | 87 | 82 | 1.7 | 2.6 | 0.00 | 0.00 | 0.00 | 62 | 1016.7 |
| 20260504140301 | 87 | 69 | 3.5 | 3.5 | 0.00 | 0.00 | 0.00 | 61 | 1016.6 |
| 20260504130730 | 86 | 167 | 0.9 | 1.7 | 0.00 | 0.00 | 0.00 | 63 | 1016.3 |
| 20260504130226 | 85 | 217 | 1.7 | 1.7 | 0.00 | 0.00 | 0.00 | 65 | 1016.2 |
| 20260504120150 | 82 | 157 | 0.9 | 0.9 | 0.00 | 0.00 | 0.00 | 70 | 1015.4 |
| 20260504110617 | 76 | 126 | 0.9 | 1.7 | 0.00 | 0.00 | 0.00 | 81 | 1014.7 |
| 20260504110113 | 75 | 344 | 0.9 | 0.9 | 0.00 | 0.00 | 0.00 | 84 | 1014.7 |
| 20260504100539 | 74 | 39 | 0.9 | 0.9 | 0.00 | 0.00 | 0.00 | 86 | 1014.3 |
| 20260504081933 | 76 | 72 | 1.7 | 1.7 | 0.00 | 0.00 | 0.00 | 81 | 1014.5 |
| 20260504081429 | 76 | 322 | 0.9 | 1.7 | 0.00 | 0.00 | 0.00 | 82 | 1014.7 |
| 20260504080925 | 75 | 20 | 0.9 | 0.9 | 0.00 | 0.00 | 0.00 | 83 | 1014.8 |
| 20260504080422 | 75 | 28 | 0.9 | 0.9 | 0.00 | 0.00 | 0.00 | 84 | 1014.7 |
| 20260504070350 | 75 | 5 | 0.9 | 0.9 | 0.00 | 0.00 | 0.00 | 83 | 1015.7 |
| 20260504050737 | 77 | 23 | 0.9 | 0.9 | 0.00 | 0.00 | 0.00 | 81 | 1016.7 |
| 20260504050235 | 77 | 342 | 1.7 | 1.7 | 0.00 | 0.00 | 0.00 | 80 | 1016.9 |
| 20260504045727 | 76 | 323 | 0.9 | 0.9 | 0.00 | 0.00 | 0.00 | 83 | 1016.8 |
| 20260504045227 | 76 | 14 | 0.0 | 0.9 | 0.00 | 0.00 | 0.00 | 83 | 1017.0 |
| 20260504044724 | 76 | 41 | 0.9 | 0.9 | 0.00 | 0.00 | 0.00 | 83 | 1016.8 |
| 20260504044222 | 76 | 37 | 0.0 | 0.9 | 0.00 | 0.00 | 0.00 | 83 | 1017.1 |
| 20260504043719 | 76 | 31 | 0.9 | 0.9 | 0.00 | 0.00 | 0.00 | 83 | 1017.2 |
| 20260504043216 | 77 | 24 | 0.9 | 0.9 | 0.00 | 0.00 | 0.00 | 81 | 1017.4 |
| 20260504042714 | 77 | 21 | 0.9 | 0.9 | 0.00 | 0.00 | 0.00 | 81 | 1017.4 |
| 20260504042210 | 77 | 52 | 0.0 | 0.9 | 0.00 | 0.00 | 0.00 | 82 | 1017.3 |
| 20260504041706 | 77 | 47 | 0.9 | 0.9 | 0.00 | 0.00 | 0.00 | 81 | 1017.4 |
| 20260504041201 | 76 | 34 | 0.9 | 0.9 | 0.00 | 0.00 | 0.00 | 82 | 1017.7 |
| 20260504040659 | 76 | 58 | 0.0 | 0.9 | 0.00 | 0.00 | 0.00 | 82 | 1017.6 |
| 20260504040156 | 76 | 28 | 0.9 | 0.9 | 0.00 | 0.00 | 0.00 | 84 | 1017.7 |
| 20260504035652 | 75 | 50 | 0.9 | 1.7 | 0.00 | 0.00 | 0.00 | 86 | 1017.7 |
| 20260504035149 | 75 | 64 | 0.9 | 1.7 | 0.00 | 0.00 | 0.00 | 86 | 1017.7 |
| 20260504034647 | 76 | 68 | 0.9 | 1.7 | 0.00 | 0.00 | 0.00 | 85 | 1018.0 |
| 20260504034143 | 77 | 63 | 0.9 | 0.9 | 0.00 | 0.00 | 0.00 | 83 | 1017.7 |
| 20260504033641 | 77 | 45 | 0.0 | 0.9 | 0.00 | 0.00 | 0.00 | 82 | 1017.8 |
| 20260504033138 | 77 | 20 | 0.0 | 0.9 | 0.00 | 0.00 | 0.00 | 81 | 1017.8 |
| 20260504032635 | 77 | 296 | 0.0 | 0.9 | 0.00 | 0.00 | 0.00 | 81 | 1017.9 |
| 20260504032132 | 77 | 330 | 0.0 | 0.9 | 0.00 | 0.00 | 0.00 | 80 | 1017.8 |
| 20260504031629 | 78 | 352 | 0.9 | 0.9 | 0.00 | 0.00 | 0.00 | 81 | 1018.0 |
| 20260504031126 | 78 | 358 | 0.9 | 0.9 | 0.00 | 0.00 | 0.00 | 80 | 1017.9 |
| 20260504030622 | 78 | 314 | 0.9 | 0.9 | 0.00 | 0.00 | 0.00 | 81 | 1017.9 |
| 20260504030119 | 78 | 44 | 0.9 | 0.9 | 0.00 | 0.00 | 0.00 | 81 | 1017.7 |
| 20260504025616 | 78 | 47 | 0.9 | 0.9 | 0.00 | 0.00 | 0.00 | 80 | 1017.9 |
| 20260504025113 | 78 | 354 | 0.9 | 0.9 | 0.00 | 0.00 | 0.00 | 79 | 1017.7 |
| 20260504024610 | 79 | 324 | 0.0 | 0.0 | 0.00 | 0.00 | 0.00 | 78 | 1017.8 |
| 20260504024107 | 78 | 300 | 0.9 | 0.9 | 0.00 | 0.00 | 0.00 | 78 | 1017.8 |
| 20260504023603 | 78 | 275 | 0.9 | 0.9 | 0.00 | 0.00 | 0.00 | 78 | 1017.8 |
| 20260504023059 | 79 | 289 | 0.0 | 0.9 | 0.00 | 0.00 | 0.00 | 77 | 1017.6 |
| 20260504022555 | 79 | 250 | 0.9 | 0.9 | 0.00 | 0.00 | 0.00 | 77 | 1017.7 |
| 20260504022052 | 79 | 227 | 0.9 | 0.9 | 0.00 | 0.00 | 0.00 | 77 | 1017.5 |
| 20260504021549 | 79 | 208 | 0.9 | 0.9 | 0.00 | 0.00 | 0.00 | 77 | 1017.5 |
| 20260504021046 | 79 | 289 | 0.0 | 0.9 | 0.00 | 0.00 | 0.00 | 76 | 1017.4 |
| 20260504020543 | 80 | 238 | 0.0 | 0.9 | 0.00 | 0.00 | 0.00 | 76 | 1017.4 |
| 20260504020039 | 80 | 218 | 0.0 | 1.7 | 0.00 | 0.00 | 0.00 | 76 | 1017.2 |
| 20260504015536 | 80 | 180 | 1.7 | 1.7 | 0.00 | 0.00 | 0.00 | 77 | 1017.3 |
| 20260504015026 | 80 | 217 | 0.9 | 1.7 | 0.00 | 0.00 | 0.00 | 77 | 1017.3 |
| 20260504014523 | 80 | 198 | 0.9 | 1.7 | 0.00 | 0.00 | 0.00 | 77 | 1017.1 |
| 20260504014020 | 80 | 176 | 0.9 | 2.6 | 0.00 | 0.00 | 0.00 | 77 | 1017.1 |
| 20260504013518 | 80 | 154 | 0.9 | 1.7 | 0.00 | 0.00 | 0.00 | 76 | 1017.1 |
| 20260504013015 | 80 | 165 | 1.7 | 3.5 | 0.00 | 0.00 | 0.00 | 76 | 1016.9 |
| 20260504012512 | 80 | 164 | 2.6 | 2.6 | 0.00 | 0.00 | 0.00 | 76 | 1016.8 |
| 20260504012010 | 80 | 148 | 0.9 | 3.5 | 0.00 | 0.00 | 0.00 | 75 | 1016.8 |
| 20260504011506 | 81 | 183 | 1.7 | 3.5 | 0.00 | 0.00 | 0.00 | 74 | 1016.8 |
| 20260504011002 | 81 | 200 | 0.9 | 4.3 | 0.00 | 0.00 | 0.00 | 74 | 1016.5 |
| 20260504010458 | 81 | 176 | 1.7 | 3.5 | 0.00 | 0.00 | 0.00 | 73 | 1016.6 |
| 20260504005954 | 81 | 131 | 3.5 | 4.3 | 0.00 | 0.00 | 0.00 | 73 | 1016.3 |
| 20260504005451 | 81 | 192 | 2.6 | 5.2 | 0.00 | 0.00 | 0.00 | 73 | 1016.3 |
| 20260504004949 | 81 | 152 | 1.7 | 3.5 | 0.00 | 0.00 | 0.00 | 73 | 1016.2 |
| 20260504004446 | 81 | 189 | 0.9 | 2.6 | 0.00 | 0.00 | 0.00 | 73 | 1016.1 |
| 20260504003943 | 81 | 174 | 1.7 | 4.3 | 0.00 | 0.00 | 0.00 | 73 | 1015.9 |
| 20260504003439 | 81 | 122 | 1.7 | 2.6 | 0.00 | 0.00 | 0.00 | 73 | 1016.0 |
| 20260504002936 | 82 | 154 | 0.9 | 2.6 | 0.00 | 0.00 | 0.00 | 74 | 1015.9 |
| 20260504002433 | 82 | 172 | 1.7 | 4.3 | 0.00 | 0.00 | 0.00 | 74 | 1015.8 |
| 20260504001930 | 82 | 171 | 3.5 | 3.5 | 0.00 | 0.00 | 0.00 | 75 | 1015.8 |
| 20260504001428 | 82 | 252 | 0.9 | 2.6 | 0.00 | 0.00 | 0.00 | 75 | 1015.7 |
| 20260504000924 | 82 | 181 | 0.9 | 2.6 | 0.00 | 0.00 | 0.00 | 75 | 1015.6 |
| 20260504000423 | 82 | 184 | 0.9 | 3.5 | 0.00 | 0.00 | 0.00 | 75 | 1015.5 |
| 20260503235919 | 82 | 187 | 0.0 | 3.5 | 0.00 | 0.00 | 0.00 | 75 | 1015.6 |
| 20260503235416 | 82 | 215 | 0.9 | 1.7 | 0.00 | 0.00 | 0.00 | 75 | 1015.5 |
| 20260503234914 | 82 | 262 | 1.7 | 2.6 | 0.00 | 0.00 | 0.00 | 74 | 1015.6 |
| 20260503234411 | 82 | 210 | 1.7 | 1.7 | 0.00 | 0.00 | 0.00 | 74 | 1015.5 |
| 20260503233909 | 82 | 259 | 1.7 | 1.7 | 0.00 | 0.00 | 0.00 | 74 | 1015.5 |
| 20260503233405 | 82 | 204 | 1.7 | 3.5 | 0.00 | 0.00 | 0.00 | 74 | 1015.4 |
| 20260503232902 | 82 | 167 | 3.5 | 4.3 | 0.00 | 0.00 | 0.00 | 74 | 1015.3 |
| 20260503232359 | 82 | 231 | 1.7 | 2.6 | 0.00 | 0.00 | 0.00 | 73 | 1015.3 |
| 20260503231857 | 83 | 160 | 1.7 | 1.7 | 0.00 | 0.00 | 0.00 | 73 | 1015.4 |
| 20260503231354 | 83 | 225 | 0.9 | 2.6 | 0.00 | 0.00 | 0.00 | 72 | 1015.3 |
| 20260503230849 | 83 | 166 | 1.7 | 4.3 | 0.00 | 0.00 | 0.00 | 72 | 1015.3 |
| 20260503230346 | 83 | 237 | 1.7 | 1.7 | 0.00 | 0.00 | 0.00 | 72 | 1015.4 |
| 20260503225844 | 83 | 136 | 1.7 | 2.6 | 0.00 | 0.00 | 0.00 | 72 | 1015.2 |
| 20260503225340 | 83 | 178 | 0.0 | 1.7 | 0.00 | 0.00 | 0.00 | 72 | 1015.2 |
| 20260503224836 | 83 | 165 | 0.9 | 1.7 | 0.00 | 0.00 | 0.00 | 72 | 1015.3 |
| 20260503224334 | 83 | 163 | 0.9 | 4.3 | 0.00 | 0.00 | 0.00 | 72 | 1015.3 |
| 20260503223831 | 83 | 179 | 1.7 | 3.5 | 0.00 | 0.00 | 0.00 | 71 | 1015.2 |